Time;durP1;ratioP1;P1;durP2;ratioP2;P2;SDS_P1;SDS_P2;PMS_P1;PMS_P2;Temp;Humidity;BMP_temperature;BMP_pressure;BME280_temperature;BME280_humidity;BME280_pressure;Samples;Min_cycle;Max_cycle;Signal;HPM_P1;HPM_P2
2022/01/06 00:00:23;;;;;;;;;;;;;;;;;;5077701;28;20561;-78
2022/01/06 00:02:49;;;;;;;11.25;2.58;;;;;;;;;;5091975;28;19969;-84
2022/01/06 00:05:15;;;;;;;26.42;3.50;;;;;;;;;;5092613;28;20048;-78
2022/01/06 00:07:41;;;;;;;19.02;3.42;;;;;;;;;;5093602;28;20100;-78
2022/01/06 00:10:11;;;;;;;20.55;3.30;;;;;;;;;;5091734;28;20070;-79
2022/01/06 00:12:46;;;;;;;19.40;3.45;;;;;;;;;;5076243;28;20060;-80
2022/01/06 00:15:35;;;;;;;20.15;3.55;;;;;;;;;;5092350;28;20052;-78
2022/01/06 00:23:32;;;;;;;21.25;3.80;;;;;;;;;;5075963;28;20443;-80
2022/01/06 00:25:59;;;;;;;29.58;4.40;;;;;;;;;;5072203;28;20048;-75
2022/01/06 00:28:26;;;;;;;21.23;4.25;;;;;;;;;;5071529;28;20463;-76
2022/01/06 00:30:52;;;;;;;27.95;4.45;;;;;;;;;;5072494;28;20114;-74
2022/01/06 00:33:18;;;;;;;23.50;4.10;;;;;;;;;;5072898;28;20423;-74
2022/01/06 00:35:44;;;;;;;;;;;;;;;;;;5073210;28;20124;-74
2022/01/06 00:38:10;;;;;;;26.02;4.75;;;;;;;;;;5072271;28;19970;-76
2022/01/06 00:40:37;;;;;;;28.77;5.65;;;;;;;;;;5072626;28;20083;-74
2022/01/06 00:43:07;;;;;;;27.40;5.22;;;;;;;;;;5102182;28;20066;-75
2022/01/06 00:45:35;;;;;;;31.70;4.80;;;;;;;;;;5070682;28;20083;-78
2022/01/06 00:48:01;;;;;;;35.72;5.20;;;;;;;;;;5071234;28;20049;-76
2022/01/06 00:50:28;;;;;;;23.00;5.20;;;;;;;;;;5071482;28;20129;-76
2022/01/06 00:52:57;;;;;;;27.35;4.80;;;;;;;;;;5073243;28;20048;-78
2022/01/06 00:55:23;;;;;;;18.75;4.63;;;;;;;;;;5072715;28;20041;-73
2022/01/06 00:57:49;;;;;;;32.30;4.65;;;;;;;;;;5072827;28;20126;-75
2022/01/06 01:00:15;;;;;;;25.25;4.85;;;;;;;;;;5075916;28;20062;-74
2022/01/06 01:02:41;;;;;;;25.10;4.13;;;;;;;;;;5092775;28;20075;-79
2022/01/06 01:05:08;;;;;;;21.77;4.57;;;;;;;;;;5092184;28;20055;-76
2022/01/06 01:07:34;;;;;;;20.95;4.00;;;;;;;;;;5092562;28;20091;-75
2022/01/06 01:10:00;;;;;;;22.90;4.07;;;;;;;;;;5092261;28;20082;-76
2022/01/06 01:12:27;;;;;;;24.52;4.43;;;;;;;;;;5090689;28;20527;-75
2022/01/06 01:14:59;;;;;;;25.65;4.32;;;;;;;;;;5092086;28;20484;-74
2022/01/06 01:17:27;;;;;;;28.63;4.47;;;;;;;;;;5093165;28;20388;-74
2022/01/06 01:19:53;;;;;;;26.67;4.72;;;;;;;;;;5092497;28;20048;-74
2022/01/06 01:22:19;;;;;;;30.08;5.50;;;;;;;;;;5089484;28;20083;-75
2022/01/06 01:24:45;;;;;;;24.70;4.90;;;;;;;;;;5092598;28;20503;-74
2022/01/06 01:27:11;;;;;;;26.15;4.65;;;;;;;;;;5091819;28;20418;-75
2022/01/06 01:29:45;;;;;;;34.00;4.82;;;;;;;;;;5092250;28;20075;-74
2022/01/06 01:32:12;;;;;;;28.17;4.00;;;;;;;;;;5089946;28;20498;-74
2022/01/06 01:34:40;;;;;;;29.40;4.25;;;;;;;;;;5091360;28;20105;-74
2022/01/06 01:37:06;;;;;;;27.90;4.47;;;;;;;;;;5090661;28;20044;-75
2022/01/06 01:39:32;;;;;;;27.40;3.95;;;;;;;;;;5092553;28;20055;-72
2022/01/06 01:41:58;;;;;;;28.20;4.43;;;;;;;;;;5089895;28;20085;-73
2022/01/06 01:44:24;;;;;;;30.52;4.53;;;;;;;;;;5091463;28;20159;-73
2022/01/06 01:47:01;;;;;;;22.58;4.60;;;;;;;;;;5092271;28;20048;-74
2022/01/06 01:49:32;;;;;;;20.20;4.00;;;;;;;;;;5092204;28;20127;-73
2022/01/06 01:51:58;;;;;;;19.77;4.03;;;;;;;;;;5091950;28;20055;-74
2022/01/06 01:54:24;;;;;;;22.88;5.00;;;;;;;;;;5090547;28;20075;-74
2022/01/06 01:56:51;;;;;;;21.80;3.83;;;;;;;;;;5095259;28;20062;-74
2022/01/06 01:59:17;;;;;;;28.75;3.75;;;;;;;;;;5095415;28;20052;-73
2022/01/06 02:01:44;;;;;;;25.45;4.30;;;;;;;;;;5079156;28;20045;-74
2022/01/06 02:04:10;;;;;;;21.13;3.72;;;;;;;;;;5075215;28;20507;-73
2022/01/06 02:06:36;;;;;;;18.75;3.70;;;;;;;;;;5075599;28;20090;-73
2022/01/06 02:09:02;;;;;;;21.80;3.50;;;;;;;;;;5075123;28;20053;-73
2022/01/06 02:11:28;;;;;;;23.38;3.78;;;;;;;;;;5086431;28;20047;-73
2022/01/06 02:13:55;;;;;;;18.27;3.58;;;;;;;;;;5095532;28;20040;-73
2022/01/06 02:16:22;;;;;;;23.70;3.70;;;;;;;;;;5094936;28;20056;-73
2022/01/06 02:18:49;;;;;;;26.08;3.97;;;;;;;;;;5095692;28;20043;-74
2022/01/06 02:21:15;;;;;;;24.40;3.83;;;;;;;;;;5093537;28;20048;-74
2022/01/06 02:23:41;;;;;;;20.60;3.83;;;;;;;;;;5095552;28;20047;-73
2022/01/06 02:26:07;;;;;;;21.40;4.03;;;;;;;;;;5093722;28;20040;-73
2022/01/06 02:28:33;;;;;;;25.75;4.60;;;;;;;;;;5095257;28;20096;-73
2022/01/06 02:30:59;;;;;;;23.58;4.30;;;;;;;;;;5095157;28;20104;-73
2022/01/06 02:33:26;;;;;;;25.58;4.32;;;;;;;;;;5093174;28;20047;-73
2022/01/06 02:35:54;;;;;;;31.30;4.60;;;;;;;;;;5095112;28;20063;-73
2022/01/06 02:38:20;;;;;;;29.13;4.35;;;;;;;;;;5094841;28;20052;-73
2022/01/06 02:40:46;;;;;;;;;;;;;;;;;;5095447;28;20040;-74
2022/01/06 02:43:15;;;;;;;24.13;5.00;;;;;;;;;;5092864;28;19919;-74
2022/01/06 02:45:42;;;;;;;24.95;4.25;;;;;;;;;;5094825;28;20047;-72
2022/01/06 02:48:11;;;;;;;26.98;4.80;;;;;;;;;;5094628;28;20047;-73
2022/01/06 02:50:38;;;;;;;22.10;4.22;;;;;;;;;;5094983;28;20113;-73
2022/01/06 02:53:05;;;;;;;31.27;5.35;;;;;;;;;;5093107;28;20044;-74
2022/01/06 02:55:31;;;;;;;26.42;5.10;;;;;;;;;;5094735;28;20082;-75
2022/01/06 02:57:57;;;;;;;21.65;4.00;;;;;;;;;;5094582;28;20047;-75
2022/01/06 03:00:23;;;;;;;30.00;4.50;;;;;;;;;;5076408;28;20044;-74
2022/01/06 03:02:49;;;;;;;24.23;4.47;;;;;;;;;;5093039;28;20058;-76
2022/01/06 03:05:16;;;;;;;32.78;5.13;;;;;;;;;;5094278;28;20051;-74
2022/01/06 03:07:43;;;;;;;24.25;5.05;;;;;;;;;;5093031;28;20055;-74
2022/01/06 03:10:11;;;;;;;;;;;;;;;;;;5094511;28;20079;-74
2022/01/06 03:12:40;;;;;;;27.73;4.47;;;;;;;;;;5094281;28;19966;-74
2022/01/06 03:15:07;;;;;;;23.77;5.03;;;;;;;;;;5093049;28;20051;-74
2022/01/06 03:17:34;;;;;;;25.50;4.95;;;;;;;;;;5094334;28;20476;-74
2022/01/06 03:20:00;;;;;;;32.05;5.93;;;;;;;;;;5094211;28;20058;-74
2022/01/06 03:22:26;;;;;;;26.17;4.90;;;;;;;;;;5093844;28;20411;-74
2022/01/06 03:24:52;;;;;;;34.35;4.70;;;;;;;;;;5092427;28;20051;-74
2022/01/06 03:27:18;;;;;;;27.98;4.45;;;;;;;;;;5093048;28;20044;-73
2022/01/06 03:29:45;;;;;;;25.38;4.75;;;;;;;;;;5093969;28;20052;-74
2022/01/06 03:32:11;;;;;;;33.88;5.55;;;;;;;;;;5092368;28;20052;-74
2022/01/06 03:34:37;;;;;;;21.90;4.30;;;;;;;;;;5092439;28;20105;-73
2022/01/06 03:37:05;;;;;;;25.23;4.57;;;;;;;;;;5094104;28;20410;-74
2022/01/06 03:39:33;;;;;;;29.25;4.57;;;;;;;;;;5093413;28;20525;-74
2022/01/06 03:41:59;;;;;;;29.98;5.28;;;;;;;;;;5093715;28;20089;-74
2022/01/06 03:44:25;;;;;;;29.13;6.18;;;;;;;;;;5092120;28;20043;-74
2022/01/06 03:46:53;;;;;;;21.40;5.05;;;;;;;;;;5076162;28;20511;-74
2022/01/06 03:49:19;;;;;;;27.88;5.00;;;;;;;;;;5071921;28;20114;-74
2022/01/06 03:51:45;;;;;;;31.55;5.38;;;;;;;;;;5073414;28;20048;-74
2022/01/06 03:54:11;;;;;;;28.77;5.15;;;;;;;;;;5073235;28;20040;-74
2022/01/06 03:56:38;;;;;;;28.98;5.28;;;;;;;;;;5080539;28;20471;-74
2022/01/06 03:59:04;;;;;;;28.38;4.93;;;;;;;;;;5093733;28;20052;-74
2022/01/06 04:01:34;;;;;;;27.23;5.50;;;;;;;;;;5093106;28;20048;-74
2022/01/06 04:04:00;;;;;;;23.17;4.53;;;;;;;;;;5093477;28;20051;-74
2022/01/06 04:06:26;;;;;;;29.35;4.70;;;;;;;;;;5087483;28;20080;-74
2022/01/06 04:08:52;;;;;;;22.58;4.63;;;;;;;;;;5073003;28;20044;-75
2022/01/06 04:11:18;;;;;;;25.40;4.15;;;;;;;;;;5072487;28;20476;-75
2022/01/06 04:13:44;;;;;;;29.30;4.97;;;;;;;;;;5072997;28;20044;-74
2022/01/06 04:16:14;;;;;;;23.75;4.50;;;;;;;;;;5072973;28;20048;-74
2022/01/06 04:18:40;;;;;;;27.85;5.45;;;;;;;;;;5092182;28;20194;-74
2022/01/06 04:21:07;;;;;;;28.20;4.82;;;;;;;;;;5092158;28;20040;-74
2022/01/06 04:23:33;;;;;;;31.05;4.45;;;;;;;;;;5091583;28;20376;-74
2022/01/06 04:26:00;;;;;;;30.25;4.50;;;;;;;;;;5092963;28;20468;-75
2022/01/06 04:28:26;;;;;;;28.77;4.95;;;;;;;;;;5090885;28;20490;-74
2022/01/06 04:30:52;;;;;;;25.65;5.03;;;;;;;;;;5093171;28;20073;-75
2022/01/06 04:33:18;;;;;;;26.25;4.82;;;;;;;;;;5092131;28;20117;-74
2022/01/06 04:35:44;;;;;;;25.00;4.78;;;;;;;;;;5093022;28;20407;-75
2022/01/06 04:38:10;;;;;;;24.02;5.55;;;;;;;;;;5091063;28;20044;-75
2022/01/06 04:40:36;;;;;;;32.55;4.38;;;;;;;;;;5092618;28;20131;-75
2022/01/06 04:43:03;;;;;;;25.20;5.10;;;;;;;;;;5093056;28;20050;-74
2022/01/06 04:45:29;;;;;;;30.17;5.20;;;;;;;;;;5092460;28;20502;-74
2022/01/06 04:47:55;;;;;;;30.90;5.47;;;;;;;;;;5092001;28;20063;-75
2022/01/06 04:50:21;;;;;;;25.23;4.28;;;;;;;;;;5091388;28;20090;-75
2022/01/06 04:52:47;;;;;;;25.95;5.38;;;;;;;;;;5072559;28;20051;-75
2022/01/06 04:55:13;;;;;;;32.10;6.32;;;;;;;;;;5073713;28;20047;-74
2022/01/06 04:57:39;;;;;;;33.17;5.53;;;;;;;;;;5071993;28;20515;-74
2022/01/06 05:00:06;;;;;;;25.27;4.45;;;;;;;;;;5082035;28;20040;-75
2022/01/06 05:02:32;;;;;;;28.85;5.20;;;;;;;;;;5092227;28;20044;-75
2022/01/06 05:04:59;;;;;;;33.38;5.45;;;;;;;;;;5092660;28;20105;-75
2022/01/06 05:07:25;;;;;;;24.07;4.93;;;;;;;;;;5073955;28;20047;-74
2022/01/06 05:09:51;;;;;;;32.63;5.85;;;;;;;;;;5072559;28;20059;-75
2022/01/06 05:12:17;;;;;;;35.55;5.63;;;;;;;;;;5072577;28;20084;-74
2022/01/06 05:14:43;;;;;;;26.20;5.45;;;;;;;;;;5072077;28;20045;-74
2022/01/06 05:17:10;;;;;;;24.17;4.32;;;;;;;;;;5073668;28;20041;-74
2022/01/06 05:19:36;;;;;;;29.63;4.82;;;;;;;;;;5071910;28;20102;-74
2022/01/06 05:22:03;;;;;;;30.90;5.15;;;;;;;;;;5072199;28;20060;-74
2022/01/06 05:24:29;;;;;;;28.55;5.22;;;;;;;;;;5071959;28;20041;-74
2022/01/06 05:26:56;;;;;;;33.40;5.95;;;;;;;;;;5073254;28;20037;-74
2022/01/06 05:29:23;;;;;;;30.10;5.55;;;;;;;;;;5073107;28;20053;-74
2022/01/06 05:31:49;;;;;;;31.13;6.40;;;;;;;;;;5074869;28;20044;-74
2022/01/06 05:34:15;;;;;;;28.25;5.95;;;;;;;;;;5076207;28;20067;-74
2022/01/06 05:36:41;;;;;;;31.02;6.45;;;;;;;;;;5074294;28;20430;-74
2022/01/06 05:39:07;;;;;;;42.50;7.03;;;;;;;;;;5077184;28;20477;-75
2022/01/06 05:41:33;;;;;;;34.65;5.70;;;;;;;;;;5075718;28;20079;-74
2022/01/06 05:44:00;;;;;;;31.55;6.00;;;;;;;;;;5077077;28;20181;-74
2022/01/06 05:46:26;;;;;;;;;;;;;;;;;;5077680;28;20059;-74
2022/01/06 05:48:52;;;;;;;23.40;5.83;;;;;;;;;;5075850;28;20383;-75
2022/01/06 05:51:18;;;;;;;25.70;5.28;;;;;;;;;;5095113;28;20040;-75
2022/01/06 05:53:44;;;;;;;29.20;6.07;;;;;;;;;;5094757;28;20040;-74
2022/01/06 05:56:10;;;;;;;30.10;5.35;;;;;;;;;;5096038;28;20044;-74
2022/01/06 05:58:39;;;;;;;32.70;5.38;;;;;;;;;;5095501;28;20095;-74
2022/01/06 06:01:07;;;;;;;31.17;6.17;;;;;;;;;;5093902;28;20083;-74
2022/01/06 06:03:33;;;;;;;29.63;5.90;;;;;;;;;;5095454;28;20127;-74
2022/01/06 06:05:59;;;;;;;27.67;5.63;;;;;;;;;;5095727;28;20048;-74
2022/01/06 06:08:25;;;;;;;26.35;6.55;;;;;;;;;;5095935;28;20391;-74
2022/01/06 06:10:51;;;;;;;31.80;7.05;;;;;;;;;;5087948;28;20457;-74
2022/01/06 06:13:17;;;;;;;25.95;6.10;;;;;;;;;;5075459;28;20132;-74
2022/01/06 06:15:43;;;;;;;33.65;5.93;;;;;;;;;;5074830;28;20043;-74
2022/01/06 06:18:12;;;;;;;29.42;6.03;;;;;;;;;;5075227;28;20048;-75
2022/01/06 06:20:41;;;;;;;34.67;6.50;;;;;;;;;;5075787;28;20070;-74
2022/01/06 06:23:07;;;;;;;26.87;5.93;;;;;;;;;;5090975;28;20411;-74
2022/01/06 06:25:34;;;;;;;24.75;5.78;;;;;;;;;;5094932;28;20040;-75
2022/01/06 06:28:00;;;;;;;28.50;6.28;;;;;;;;;;5095473;28;20108;-74
2022/01/06 06:30:26;;;;;;;32.85;6.38;;;;;;;;;;5095258;28;20511;-74
2022/01/06 06:32:52;;;;;;;25.00;6.32;;;;;;;;;;5092785;28;20052;-74
2022/01/06 06:35:18;;;;;;;36.97;5.95;;;;;;;;;;5094338;28;20505;-74
2022/01/06 06:37:44;;;;;;;26.27;5.30;;;;;;;;;;5094901;28;20101;-74
2022/01/06 06:40:11;;;;;;;28.67;6.00;;;;;;;;;;5095183;28;20130;-74
2022/01/06 06:42:37;;;;;;;31.00;5.80;;;;;;;;;;5091680;28;20504;-74
2022/01/06 06:45:03;;;;;;;;;;;;;;;;;;5095413;28;20055;-74
2022/01/06 06:47:29;;;;;;;29.77;6.67;;;;;;;;;;5094748;28;19920;-75
2022/01/06 06:49:59;;;;;;;34.05;7.70;;;;;;;;;;5094619;28;20452;-74
2022/01/06 06:52:25;;;;;;;33.93;6.33;;;;;;;;;;5093254;28;20070;-74
2022/01/06 06:54:53;;;;;;;26.90;6.37;;;;;;;;;;5094229;28;20526;-74
2022/01/06 06:57:20;;;;;;;30.33;5.93;;;;;;;;;;5094781;28;20128;-74
2022/01/06 06:59:46;;;;;;;28.10;6.30;;;;;;;;;;5094138;28;20131;-74
2022/01/06 07:02:12;;;;;;;32.03;6.38;;;;;;;;;;5074606;28;20045;-74
2022/01/06 07:04:38;;;;;;;28.38;6.50;;;;;;;;;;5074578;28;20047;-74
2022/01/06 07:07:04;;;;;;;27.25;6.07;;;;;;;;;;5074366;28;20503;-75
2022/01/06 07:09:30;;;;;;;31.55;7.22;;;;;;;;;;5106883;28;20423;-75
2022/01/06 07:11:56;;;;;;;31.30;7.85;;;;;;;;;;5088597;28;20047;-75
2022/01/06 07:14:22;;;;;;;32.47;7.05;;;;;;;;;;5094553;28;20126;-75
2022/01/06 07:16:48;;;;;;;26.88;6.60;;;;;;;;;;5093909;28;20039;-74
2022/01/06 07:19:15;;;;;;;41.33;7.45;;;;;;;;;;5094472;28;20051;-75
2022/01/06 07:21:41;;;;;;;29.37;7.40;;;;;;;;;;5091213;28;20066;-75
2022/01/06 07:24:08;;;;;;;27.85;7.13;;;;;;;;;;5094291;28;20051;-75
2022/01/06 07:26:34;;;;;;;29.73;8.05;;;;;;;;;;5094181;28;20040;-75
2022/01/06 07:29:00;;;;;;;33.10;7.43;;;;;;;;;;5093439;28;20515;-75
2022/01/06 07:31:26;;;;;;;27.80;8.00;;;;;;;;;;5092637;28;20055;-75
2022/01/06 07:33:52;;;;;;;24.20;6.95;;;;;;;;;;5092860;28;20564;-74
2022/01/06 07:36:18;;;;;;;33.00;7.72;;;;;;;;;;5093552;28;20039;-75
2022/01/06 07:38:44;;;;;;;31.08;7.20;;;;;;;;;;5092963;28;20055;-74
2022/01/06 07:41:10;;;;;;;32.40;7.28;;;;;;;;;;5093267;28;20055;-75
2022/01/06 07:43:36;;;;;;;30.13;7.30;;;;;;;;;;5090491;28;20395;-75
2022/01/06 07:46:04;;;;;;;30.95;7.80;;;;;;;;;;5080717;28;20404;-75
2022/01/06 07:48:47;;;;;;;24.13;7.73;;;;;;;;;;5080616;28;20052;-74
2022/01/06 07:51:14;;;;;;;32.93;7.30;;;;;;;;;;5092050;28;20087;-75
2022/01/06 07:53:40;;;;;;;25.70;7.53;;;;;;;;;;5091976;28;20048;-74
2022/01/06 07:56:06;;;;;;;30.98;7.18;;;;;;;;;;5091163;28;20048;-74
2022/01/06 07:58:32;;;;;;;25.40;7.38;;;;;;;;;;5089601;28;20123;-75
2022/01/06 08:01:00;;;;;;;29.58;7.60;;;;;;;;;;5091086;28;20059;-74
2022/01/06 08:03:26;;;;;;;35.80;9.00;;;;;;;;;;5091473;28;20123;-75
2022/01/06 08:05:52;;;;;;;34.00;8.25;;;;;;;;;;5090828;28;20052;-74
2022/01/06 08:08:18;;;;;;;38.40;8.02;;;;;;;;;;5091041;28;20044;-75
2022/01/06 08:10:45;;;;;;;34.65;7.25;;;;;;;;;;5080456;28;20048;-74
2022/01/06 08:13:11;;;;;;;34.72;7.35;;;;;;;;;;5070386;28;20075;-74
2022/01/06 08:15:37;;;;;;;35.00;6.80;;;;;;;;;;5078471;28;20040;-75
2022/01/06 08:18:03;;;;;;;33.47;6.72;;;;;;;;;;5090505;28;20048;-74
2022/01/06 08:20:34;;;;;;;27.63;6.37;;;;;;;;;;5089930;28;20376;-74
2022/01/06 08:23:00;;;;;;;25.87;6.10;;;;;;;;;;5090462;28;20052;-75
2022/01/06 08:25:26;;;;;;;32.88;7.43;;;;;;;;;;5088792;28;20044;-74
2022/01/06 08:27:52;;;;;;;33.63;6.25;;;;;;;;;;5089893;28;20040;-74
2022/01/06 08:30:18;;;;;;;24.35;5.47;;;;;;;;;;5090797;28;20067;-73
2022/01/06 08:32:44;;;;;;;29.60;6.43;;;;;;;;;;5090804;28;20181;-74
2022/01/06 08:35:11;;;;;;;25.40;5.35;;;;;;;;;;5090463;28;20113;-73
2022/01/06 08:37:37;;;;;;;38.92;6.85;;;;;;;;;;5089391;28;20059;-73
2022/01/06 08:40:03;;;;;;;27.95;6.78;;;;;;;;;;5090149;28;20534;-73
2022/01/06 08:42:29;;;;;;;42.43;15.70;;;;;;;;;;5090654;28;20090;-74
2022/01/06 08:44:55;;;;;;;38.38;11.70;;;;;;;;;;5090491;28;20048;-73
2022/01/06 08:47:22;;;;;;;35.40;7.38;;;;;;;;;;5088836;28;20043;-74
2022/01/06 08:49:48;;;;;;;42.38;7.97;;;;;;;;;;5085562;28;20115;-74
2022/01/06 08:52:14;;;;;;;28.85;6.88;;;;;;;;;;5082085;28;20048;-74
2022/01/06 08:54:40;;;;;;;35.25;7.00;;;;;;;;;;5090445;28;20046;-73
2022/01/06 08:57:06;;;;;;;32.28;6.35;;;;;;;;;;5089894;28;20044;-73
2022/01/06 08:59:32;;;;;;;44.95;7.85;;;;;;;;;;5090542;28;20044;-73
2022/01/06 09:01:58;;;;;;;37.78;6.97;;;;;;;;;;5088175;28;20123;-74
2022/01/06 09:04:24;;;;;;;34.72;7.38;;;;;;;;;;5090364;28;20484;-74
2022/01/06 09:06:51;;;;;;;47.53;7.70;;;;;;;;;;5093584;28;20484;-73
2022/01/06 09:09:18;;;;;;;41.77;7.43;;;;;;;;;;5093940;28;20109;-74
2022/01/06 09:11:44;;;;;;;;;;;;;;;;;;5093930;28;20051;-74
2022/01/06 09:14:10;;;;;;;34.80;8.30;;;;;;;;;;5092237;28;20279;-74
2022/01/06 09:16:37;;;;;;;37.60;7.97;;;;;;;;;;5093160;28;20090;-74
2022/01/06 09:19:03;;;;;;;35.80;8.65;;;;;;;;;;5075497;28;20048;-73
2022/01/06 09:21:29;;;;;;;;;;;;;;;;;;5093042;28;20126;-74
2022/01/06 09:23:57;;;;;;;32.50;8.17;;;;;;;;;;5093592;28;20012;-74
2022/01/06 09:26:23;;;;;;;35.53;8.30;;;;;;;;;;5083763;28;20119;-74
2022/01/06 09:28:49;;;;;;;36.63;8.02;;;;;;;;;;5073785;28;20507;-74
2022/01/06 09:31:15;;;;;;;25.90;6.50;;;;;;;;;;5105730;28;20063;-74
2022/01/06 09:33:41;;;;;;;34.47;7.45;;;;;;;;;;5073852;28;20052;-74
2022/01/06 09:36:07;;;;;;;29.42;6.45;;;;;;;;;;5074296;28;20040;-74
2022/01/06 09:38:33;;;;;;;22.10;5.95;;;;;;;;;;5089333;28;20087;-74
2022/01/06 09:41:03;;;;;;;35.95;6.70;;;;;;;;;;5076993;28;20044;-73
2022/01/06 09:43:31;;;;;;;31.83;6.43;;;;;;;;;;5073889;28;20099;-73
2022/01/06 09:46:00;;;;;;;33.28;6.78;;;;;;;;;;5106457;28;20098;-73
2022/01/06 09:48:27;;;;;;;42.27;6.97;;;;;;;;;;5072355;28;20048;-74
2022/01/06 09:50:53;;;;;;;35.13;6.30;;;;;;;;;;5073523;28;20051;-74
2022/01/06 09:53:21;;;;;;;30.05;6.90;;;;;;;;;;5073695;28;20048;-74
2022/01/06 09:55:47;;;;;;;31.48;6.53;;;;;;;;;;5073325;28;20396;-74
2022/01/06 09:58:15;;;;;;;31.17;6.43;;;;;;;;;;5073084;28;20079;-74
2022/01/06 10:00:41;;;;;;;33.65;5.97;;;;;;;;;;5073661;28;20072;-74
2022/01/06 10:03:08;;;;;;;29.48;5.90;;;;;;;;;;5072829;28;20146;-73
2022/01/06 10:05:41;;;;;;;31.23;6.50;;;;;;;;;;5073122;28;20136;-74
2022/01/06 10:08:08;;;;;;;30.10;7.07;;;;;;;;;;5073209;28;20139;-73
2022/01/06 10:10:35;;;;;;;28.73;5.72;;;;;;;;;;5074533;28;20044;-73
2022/01/06 10:13:06;;;;;;;;;;;;;;;;;;5073692;28;20052;-74
2022/01/06 10:15:33;;;;;;;31.10;6.50;;;;;;;;;;5088314;28;19924;-73
2022/01/06 10:17:59;;;;;;;;;;;;;;;;;;5073337;28;20044;-73
2022/01/06 10:20:27;;;;;;;27.57;7.03;;;;;;;;;;5072520;28;19947;-74
2022/01/06 10:22:54;;;;;;;29.63;6.70;;;;;;;;;;5073083;28;20053;-73
2022/01/06 10:25:21;;;;;;;27.10;7.28;;;;;;;;;;5072660;28;20049;-73
2022/01/06 10:27:56;;;;;;;29.33;6.57;;;;;;;;;;5074357;28;20049;-73
2022/01/06 10:30:22;;;;;;;30.43;7.07;;;;;;;;;;5088966;28;20064;-73
2022/01/06 10:32:48;;;;;;;;;;;;;;;;;;5093453;28;20052;-73
2022/01/06 10:35:20;;;;;;;28.60;6.33;;;;;;;;;;5073452;28;20365;-73
2022/01/06 10:37:48;;;;;;;25.53;6.37;;;;;;;;;;5092005;28;20406;-73
2022/01/06 10:40:17;;;;;;;32.07;6.97;;;;;;;;;;5092614;28;20044;-73
2022/01/06 10:42:46;;;;;;;31.13;6.72;;;;;;;;;;5092972;28;20433;-73
2022/01/06 10:45:16;;;;;;;34.20;5.93;;;;;;;;;;5092271;28;20051;-72
2022/01/06 10:47:43;;;;;;;28.10;5.90;;;;;;;;;;5082477;28;20048;-73
2022/01/06 10:50:12;;;;;;;24.95;5.75;;;;;;;;;;5072168;28;20044;-73
2022/01/06 10:52:39;;;;;;;25.55;6.35;;;;;;;;;;5073819;28;20048;-73
2022/01/06 10:55:10;;;;;;;25.38;5.70;;;;;;;;;;5073539;28;20055;-74
2022/01/06 10:57:36;;;;;;;25.88;6.65;;;;;;;;;;5072283;28;20040;-73
2022/01/06 11:00:03;;;;;;;35.20;6.80;;;;;;;;;;5072673;28;20382;-73
2022/01/06 11:02:29;;;;;;;26.23;5.32;;;;;;;;;;5092141;28;20040;-74
2022/01/06 11:04:55;;;;;;;26.08;5.82;;;;;;;;;;5085054;28;20084;-74
2022/01/06 11:07:21;;;;;;;23.52;6.03;;;;;;;;;;5071738;28;20488;-74
2022/01/06 11:09:49;;;;;;;34.65;6.57;;;;;;;;;;5072364;28;20076;-73
2022/01/06 11:12:28;;;;;;;24.95;6.80;;;;;;;;;;5071583;28;20127;-74
2022/01/06 11:14:54;;;;;;;27.65;6.15;;;;;;;;;;5073360;28;20494;-73
2022/01/06 11:17:23;;;;;;;22.92;5.80;;;;;;;;;;5071768;28;20044;-73
2022/01/06 11:19:49;;;;;;;28.20;5.90;;;;;;;;;;5072249;28;20494;-73
2022/01/06 11:22:17;;;;;;;30.40;6.35;;;;;;;;;;5071483;28;20079;-73
2022/01/06 11:24:56;;;;;;;30.38;6.65;;;;;;;;;;5071998;28;20455;-75
2022/01/06 11:27:33;;;;;;;29.13;6.95;;;;;;;;;;5072171;28;20419;-87
2022/01/06 11:30:16;;;;;;;24.65;6.35;;;;;;;;;;5071374;28;20052;-73
2022/01/06 11:32:43;;;;;;;25.92;6.30;;;;;;;;;;5071433;28;20423;-72
2022/01/06 11:35:11;;;;;;;30.17;7.45;;;;;;;;;;5071675;28;20048;-72
2022/01/06 11:37:42;;;;;;;35.25;6.75;;;;;;;;;;5072097;28;20500;-71
2022/01/06 11:40:09;;;;;;;32.30;7.05;;;;;;;;;;5073646;28;20095;-75
2022/01/06 11:42:35;;;;;;;25.23;5.97;;;;;;;;;;5091084;28;20528;-73
2022/01/06 11:45:03;;;;;;;;;;;;;;;;;;5092165;28;20069;-70
2022/01/06 11:47:34;;;;;;;32.38;6.82;;;;;;;;;;5083776;28;20019;-71
2022/01/06 11:50:14;;;;;;;28.98;6.38;;;;;;;;;;5071518;28;20067;-72
2022/01/06 11:52:50;;;;;;;31.23;6.45;;;;;;;;;;5072127;28;20138;-73
2022/01/06 11:55:16;;;;;;;32.67;6.68;;;;;;;;;;5071452;28;20040;-72
2022/01/06 11:57:42;;;;;;;29.60;6.78;;;;;;;;;;5071079;28;20043;-74
2022/01/06 12:00:25;;;;;;;34.55;7.45;;;;;;;;;;5072156;28;20098;-74
2022/01/06 12:03:07;;;;;;;26.15;6.47;;;;;;;;;;5071147;28;20135;-72
2022/01/06 12:05:52;;;;;;;28.88;7.00;;;;;;;;;;5070649;28;20044;-72
2022/01/06 12:08:20;;;;;;;32.47;6.82;;;;;;;;;;5070675;28;20048;-74
2022/01/06 12:10:47;;;;;;;25.90;6.22;;;;;;;;;;5076058;28;20401;-72
2022/01/06 12:13:14;;;;;;;30.42;6.65;;;;;;;;;;5091003;28;20525;-71
2022/01/06 12:15:53;;;;;;;30.02;6.40;;;;;;;;;;5090760;28;20044;-72
2022/01/06 12:18:20;;;;;;;27.02;5.95;;;;;;;;;;5089859;28;20040;-72
2022/01/06 12:20:47;;;;;;;36.53;6.53;;;;;;;;;;5089443;28;20091;-72
2022/01/06 12:23:13;;;;;;;30.23;6.13;;;;;;;;;;5090922;28;20181;-72
2022/01/06 12:25:39;;;;;;;26.75;5.60;;;;;;;;;;5090405;28;20048;-72
2022/01/06 12:28:09;;;;;;;27.60;5.75;;;;;;;;;;5091329;28;20122;-73
2022/01/06 12:30:37;;;;;;;29.73;6.47;;;;;;;;;;5090479;28;20143;-73
2022/01/06 12:33:07;;;;;;;28.13;5.53;;;;;;;;;;5077621;28;20054;-73
2022/01/06 12:35:45;;;;;;;30.23;6.30;;;;;;;;;;5090556;28;20097;-76
2022/01/06 12:38:12;;;;;;;27.27;5.50;;;;;;;;;;5089226;28;20562;-76
2022/01/06 12:40:40;;;;;;;28.98;6.13;;;;;;;;;;5070413;28;20049;-79
2022/01/06 12:43:13;;;;;;;28.95;5.88;;;;;;;;;;5080780;28;20047;-76
2022/01/06 12:45:40;;;;;;;25.38;5.68;;;;;;;;;;5090139;28;20047;-75
2022/01/06 12:48:09;;;;;;;26.38;5.00;;;;;;;;;;5073968;28;20054;-73
2022/01/06 12:50:43;;;;;;;26.77;5.43;;;;;;;;;;5090400;28;20087;-75
2022/01/06 12:53:10;;;;;;;31.05;5.80;;;;;;;;;;5090165;28;20126;-76
2022/01/06 12:55:43;;;;;;;30.63;6.32;;;;;;;;;;5080826;28;20070;-73
2022/01/06 12:58:09;;;;;;;26.88;4.72;;;;;;;;;;5071992;28;20119;-75
2022/01/06 13:00:35;;;;;;;27.00;4.40;;;;;;;;;;5079509;28;20044;-76
2022/01/06 13:03:05;;;;;;;25.85;4.57;;;;;;;;;;5079838;28;20049;-74
2022/01/06 13:05:31;;;;;;;28.92;4.88;;;;;;;;;;5089081;28;20052;-73
2022/01/06 13:08:06;;;;;;;28.10;4.53;;;;;;;;;;5090961;28;20052;-73
2022/01/06 13:10:32;;;;;;;22.88;3.90;;;;;;;;;;5090252;28;20048;-78
2022/01/06 13:13:05;;;;;;;21.67;4.28;;;;;;;;;;5090592;28;20040;-73
2022/01/06 13:15:35;;;;;;;32.13;5.32;;;;;;;;;;5088077;28;20094;-72
2022/01/06 13:18:02;;;;;;;26.63;5.20;;;;;;;;;;5077872;28;20048;-71
2022/01/06 13:20:36;;;;;;;21.65;4.40;;;;;;;;;;5071320;28;20059;-72
2022/01/06 13:23:41;;;;;;;21.85;4.50;;;;;;;;;;5071218;28;20048;-72
2022/01/06 13:26:06;;;;;;;31.15;5.40;;;;;;;;;;5088009;28;20123;-70
2022/01/06 13:28:32;;;;;;;23.50;4.32;;;;;;;;;;5088459;28;20119;-75
2022/01/06 13:30:58;;;;;;;24.23;4.65;;;;;;;;;;5070092;28;20064;-76
2022/01/06 13:33:27;;;;;;;24.75;4.15;;;;;;;;;;5069029;28;20147;-74
2022/01/06 13:35:53;;;;;;;22.58;4.28;;;;;;;;;;5069374;28;20080;-70
2022/01/06 13:38:20;;;;;;;27.15;4.95;;;;;;;;;;5069560;28;20063;-71
2022/01/06 13:40:51;;;;;;;18.60;4.78;;;;;;;;;;5066290;28;20044;-74
2022/01/06 13:43:18;;;;;;;20.98;4.55;;;;;;;;;;5055070;28;20082;-74
2022/01/06 13:45:47;;;;;;;21.45;4.90;;;;;;;;;;5069548;28;20044;-73
2022/01/06 13:48:38;;;;;;;24.42;5.10;;;;;;;;;;5053909;28;20057;-81
2022/01/06 13:51:30;;;;;;;20.90;4.95;;;;;;;;;;5049965;28;20079;-73
2022/01/06 13:53:56;;;;;;;26.67;4.47;;;;;;;;;;5053901;28;20057;-74
2022/01/06 13:56:27;;;;;;;;;;;;;;;;;;5054148;28;20126;-73
2022/01/06 13:58:53;;;;;;;18.25;4.32;;;;;;;;;;5056940;28;19947;-73
2022/01/06 14:01:20;;;;;;;20.92;3.60;;;;;;;;;;5053365;28;20132;-75
2022/01/06 14:03:47;;;;;;;23.95;4.25;;;;;;;;;;5053332;28;20053;-74
2022/01/06 14:06:15;;;;;;;18.65;3.85;;;;;;;;;;5053503;28;20084;-71
2022/01/06 14:08:42;;;;;;;21.30;4.70;;;;;;;;;;5054270;28;20056;-72
2022/01/06 14:11:09;;;;;;;21.23;4.68;;;;;;;;;;5068592;28;20132;-70
2022/01/06 14:13:36;;;;;;;29.42;4.13;;;;;;;;;;5069447;28;20048;-69
2022/01/06 14:16:02;;;;;;;17.25;4.75;;;;;;;;;;5071022;28;20045;-73
2022/01/06 14:18:28;;;;;;;;;;;;;;;;;;5056336;28;20053;-70
2022/01/06 14:20:55;;;;;;;24.50;4.53;;;;;;;;;;5052866;28;19973;-70
2022/01/06 14:23:23;;;;;;;16.80;4.40;;;;;;;;;;5053240;28;20102;-70
2022/01/06 14:25:49;;;;;;;21.98;3.78;;;;;;;;;;5052668;28;20119;-69
2022/01/06 14:28:16;;;;;;;23.67;4.78;;;;;;;;;;5054167;28;20045;-69
2022/01/06 14:30:42;;;;;;;24.17;4.70;;;;;;;;;;5066973;28;20057;-69
2022/01/06 14:33:08;;;;;;;17.42;3.40;;;;;;;;;;5072958;28;20048;-71
2022/01/06 14:35:35;;;;;;;21.08;3.90;;;;;;;;;;5073071;28;20109;-71
2022/01/06 14:38:01;;;;;;;22.23;3.95;;;;;;;;;;5072228;28;20048;-70
2022/01/06 14:40:27;;;;;;;;;;;;;;;;;;5071461;28;20401;-72
2022/01/06 14:42:53;;;;;;;19.88;3.92;;;;;;;;;;5072093;28;19986;-71